createdAt,value
2019-03-05T21:35:00.506Z,58.50
2019-03-05T21:37:31.742Z,58.61
2019-03-05T21:40:02.643Z,58.85
2019-03-05T21:42:33.513Z,59.04
2019-03-05T21:45:07.220Z,59.33
2019-03-05T21:47:38.201Z,59.37
2019-03-05T21:50:12.352Z,59.23
2019-03-05T21:52:43.239Z,59.59
2019-03-05T21:55:16.500Z,59.64
2019-03-05T21:57:47.732Z,60.06
2019-03-05T22:00:21.698Z,60.14
2019-03-05T22:02:52.872Z,60.36
2019-03-05T22:05:23.759Z,60.37
2019-03-05T22:07:54.724Z,60.54
2019-03-05T22:10:25.591Z,60.35
2019-03-05T22:12:56.517Z,60.56
2019-03-05T22:15:36.882Z,60.33
2019-03-05T22:18:07.753Z,60.70
2019-03-05T22:20:38.656Z,60.89
2019-03-05T22:23:09.703Z,60.69
2019-03-05T22:25:40.603Z,61.01
2019-03-05T22:28:11.502Z,60.66
2019-03-05T22:30:42.466Z,60.17
2019-03-05T22:33:14.536Z,60.25
2019-03-05T22:35:46.299Z,60.25
2019-03-05T22:38:17.291Z,60.05
2019-03-05T22:40:48.160Z,59.84
2019-03-05T22:43:19.361Z,59.28
2019-03-05T22:45:52.631Z,59.73
2019-03-05T22:48:23.434Z,59.35
2019-03-05T22:50:54.286Z,59.63
2019-03-05T22:53:25.217Z,59.83
2019-03-05T22:55:56.988Z,60.18
2019-03-05T22:58:27.825Z,60.01
2019-03-05T23:01:05.446Z,60.06
2019-03-05T23:03:36.936Z,60.37
2019-03-05T23:06:10.876Z,60.23
2019-03-05T23:08:41.787Z,60.27
2019-03-05T23:11:12.643Z,60.50
2019-03-05T23:13:44.737Z,60.44
2019-03-05T23:16:15.694Z,60.45
2019-03-05T23:18:47.137Z,60.90
2019-03-05T23:21:19.175Z,61.11
2019-03-05T23:23:50.364Z,61.14
2019-03-05T23:26:21.155Z,60.93
2019-03-05T23:28:52.071Z,61.17
2019-03-05T23:31:22.869Z,60.99
2019-03-05T23:33:53.789Z,61.08
2019-03-05T23:36:24.635Z,61.07
2019-03-05T23:38:55.697Z,61.45
2019-03-05T23:41:26.590Z,61.65
2019-03-05T23:43:57.419Z,61.48
2019-03-05T23:46:28.764Z,61.76
2019-03-05T23:48:59.590Z,61.92
2019-03-05T23:51:30.440Z,61.79
2019-03-05T23:54:01.450Z,61.89
2019-03-05T23:56:32.267Z,62.06
2019-03-05T23:59:03.092Z,61.69
